sensor_id;sensor_type;location;lat;lon;timestamp;P1;durP1;ratioP1;P2;durP2;ratioP2
62543;SDS011;48597;49.030;1.822;2023-04-24T00:00:12;0.80;;;0.80;;
62543;SDS011;48597;49.030;1.822;2023-04-24T00:02:39;0.93;;;0.88;;
62543;SDS011;48597;49.030;1.822;2023-04-24T00:05:06;1.20;;;1.10;;
62543;SDS011;48597;49.030;1.822;2023-04-24T00:07:32;1.27;;;0.95;;
62543;SDS011;48597;49.030;1.822;2023-04-24T00:09:58;1.40;;;0.90;;
62543;SDS011;48597;49.030;1.822;2023-04-24T00:12:24;2.10;;;1.05;;
62543;SDS011;48597;49.030;1.822;2023-04-24T00:14:50;1.17;;;0.90;;
62543;SDS011;48597;49.030;1.822;2023-04-24T00:17:15;1.40;;;0.90;;
62543;SDS011;48597;49.030;1.822;2023-04-24T00:19:44;1.23;;;0.95;;
62543;SDS011;48597;49.030;1.822;2023-04-24T00:22:10;0.90;;;0.90;;
62543;SDS011;48597;49.030;1.822;2023-04-24T00:24:35;0.80;;;0.80;;
62543;SDS011;48597;49.030;1.822;2023-04-24T00:27:01;1.17;;;0.70;;
62543;SDS011;48597;49.030;1.822;2023-04-24T00:29:27;1.10;;;0.90;;
62543;SDS011;48597;49.030;1.822;2023-04-24T00:31:53;1.23;;;0.93;;
62543;SDS011;48597;49.030;1.822;2023-04-24T00:34:19;1.00;;;0.90;;
62543;SDS011;48597;49.030;1.822;2023-04-24T00:36:44;0.90;;;0.80;;
62543;SDS011;48597;49.030;1.822;2023-04-24T00:39:10;0.88;;;0.70;;
62543;SDS011;48597;49.030;1.822;2023-04-24T00:41:35;0.85;;;0.85;;
62543;SDS011;48597;49.030;1.822;2023-04-24T00:44:01;1.50;;;0.90;;
62543;SDS011;48597;49.030;1.822;2023-04-24T00:46:26;1.00;;;0.90;;
62543;SDS011;48597;49.030;1.822;2023-04-24T00:48:52;0.85;;;0.80;;
62543;SDS011;48597;49.030;1.822;2023-04-24T00:51:17;0.70;;;0.70;;
62543;SDS011;48597;49.030;1.822;2023-04-24T00:53:43;0.82;;;0.80;;
62543;SDS011;48597;49.030;1.822;2023-04-24T00:56:08;0.60;;;0.60;;
62543;SDS011;48597;49.030;1.822;2023-04-24T00:58:34;0.77;;;0.77;;
62543;SDS011;48597;49.030;1.822;2023-04-24T01:01:00;1.08;;;0.85;;
62543;SDS011;48597;49.030;1.822;2023-04-24T01:03:30;0.63;;;0.60;;
62543;SDS011;48597;49.030;1.822;2023-04-24T01:05:56;2.22;;;0.90;;
62543;SDS011;48597;49.030;1.822;2023-04-24T01:08:26;0.85;;;0.82;;
62543;SDS011;48597;49.030;1.822;2023-04-24T01:10:53;0.90;;;0.83;;
62543;SDS011;48597;49.030;1.822;2023-04-24T01:13:19;1.48;;;0.80;;
62543;SDS011;48597;49.030;1.822;2023-04-24T01:15:46;0.70;;;0.70;;
62543;SDS011;48597;49.030;1.822;2023-04-24T01:18:12;0.80;;;0.80;;
62543;SDS011;48597;49.030;1.822;2023-04-24T01:20:41;0.65;;;0.60;;
62543;SDS011;48597;49.030;1.822;2023-04-24T01:23:09;0.80;;;0.70;;
62543;SDS011;48597;49.030;1.822;2023-04-24T01:25:35;0.70;;;0.70;;
62543;SDS011;48597;49.030;1.822;2023-04-24T01:28:01;0.77;;;0.75;;
62543;SDS011;48597;49.030;1.822;2023-04-24T01:30:26;0.80;;;0.80;;
62543;SDS011;48597;49.030;1.822;2023-04-24T01:32:52;0.73;;;0.60;;
62543;SDS011;48597;49.030;1.822;2023-04-24T01:35:18;1.10;;;1.00;;
62543;SDS011;48597;49.030;1.822;2023-04-24T01:37:44;1.00;;;0.90;;
62543;SDS011;48597;49.030;1.822;2023-04-24T01:40:10;0.75;;;0.75;;
62543;SDS011;48597;49.030;1.822;2023-04-24T01:42:35;0.88;;;0.73;;
62543;SDS011;48597;49.030;1.822;2023-04-24T01:45:01;0.70;;;0.68;;
62543;SDS011;48597;49.030;1.822;2023-04-24T01:47:28;0.80;;;0.80;;
62543;SDS011;48597;49.030;1.822;2023-04-24T01:49:55;1.55;;;0.80;;
62543;SDS011;48597;49.030;1.822;2023-04-24T01:52:20;0.70;;;0.70;;
62543;SDS011;48597;49.030;1.822;2023-04-24T01:54:46;0.70;;;0.70;;
62543;SDS011;48597;49.030;1.822;2023-04-24T01:57:11;0.70;;;0.70;;
62543;SDS011;48597;49.030;1.822;2023-04-24T01:59:37;0.60;;;0.60;;
62543;SDS011;48597;49.030;1.822;2023-04-24T02:02:03;1.02;;;0.80;;
62543;SDS011;48597;49.030;1.822;2023-04-24T02:04:28;1.08;;;0.93;;
62543;SDS011;48597;49.030;1.822;2023-04-24T02:06:54;0.85;;;0.70;;
62543;SDS011;48597;49.030;1.822;2023-04-24T02:09:19;0.68;;;0.68;;
62543;SDS011;48597;49.030;1.822;2023-04-24T02:11:45;0.60;;;0.60;;
62543;SDS011;48597;49.030;1.822;2023-04-24T02:14:10;1.27;;;0.77;;
62543;SDS011;48597;49.030;1.822;2023-04-24T02:16:36;0.70;;;0.70;;
62543;SDS011;48597;49.030;1.822;2023-04-24T02:19:03;0.70;;;0.70;;
62543;SDS011;48597;49.030;1.822;2023-04-24T02:21:28;0.88;;;0.77;;
62543;SDS011;48597;49.030;1.822;2023-04-24T02:23:53;1.38;;;0.80;;
62543;SDS011;48597;49.030;1.822;2023-04-24T02:26:20;0.75;;;0.68;;
62543;SDS011;48597;49.030;1.822;2023-04-24T02:28:45;1.23;;;0.90;;
62543;SDS011;48597;49.030;1.822;2023-04-24T02:31:11;1.08;;;0.70;;
62543;SDS011;48597;49.030;1.822;2023-04-24T02:33:36;0.93;;;0.63;;
62543;SDS011;48597;49.030;1.822;2023-04-24T02:36:01;1.27;;;0.90;;
62543;SDS011;48597;49.030;1.822;2023-04-24T02:38:28;0.80;;;0.70;;
62543;SDS011;48597;49.030;1.822;2023-04-24T02:40:53;0.90;;;0.70;;
62543;SDS011;48597;49.030;1.822;2023-04-24T02:43:19;0.60;;;0.60;;
62543;SDS011;48597;49.030;1.822;2023-04-24T02:45:45;0.82;;;0.80;;
62543;SDS011;48597;49.030;1.822;2023-04-24T02:48:10;0.77;;;0.60;;
62543;SDS011;48597;49.030;1.822;2023-04-24T02:50:35;1.17;;;0.70;;
62543;SDS011;48597;49.030;1.822;2023-04-24T02:53:01;0.60;;;0.60;;
62543;SDS011;48597;49.030;1.822;2023-04-24T02:55:26;0.70;;;0.70;;
62543;SDS011;48597;49.030;1.822;2023-04-24T02:57:51;0.68;;;0.65;;
62543;SDS011;48597;49.030;1.822;2023-04-24T03:00:17;0.70;;;0.60;;
62543;SDS011;48597;49.030;1.822;2023-04-24T03:02:42;0.57;;;0.57;;
62543;SDS011;48597;49.030;1.822;2023-04-24T03:05:08;0.75;;;0.63;;
62543;SDS011;48597;49.030;1.822;2023-04-24T03:07:34;0.60;;;0.60;;
62543;SDS011;48597;49.030;1.822;2023-04-24T03:09:59;1.15;;;0.60;;
62543;SDS011;48597;49.030;1.822;2023-04-24T03:12:25;0.65;;;0.65;;
62543;SDS011;48597;49.030;1.822;2023-04-24T03:14:50;1.15;;;0.77;;
62543;SDS011;48597;49.030;1.822;2023-04-24T03:17:15;0.65;;;0.65;;
62543;SDS011;48597;49.030;1.822;2023-04-24T03:19:41;0.60;;;0.60;;
62543;SDS011;48597;49.030;1.822;2023-04-24T03:22:06;1.20;;;1.10;;
62543;SDS011;48597;49.030;1.822;2023-04-24T03:24:33;0.93;;;0.70;;
62543;SDS011;48597;49.030;1.822;2023-04-24T03:26:59;1.00;;;0.70;;
62543;SDS011;48597;49.030;1.822;2023-04-24T03:29:25;0.85;;;0.73;;
62543;SDS011;48597;49.030;1.822;2023-04-24T03:31:50;0.63;;;0.63;;
62543;SDS011;48597;49.030;1.822;2023-04-24T03:34:15;1.48;;;0.80;;
62543;SDS011;48597;49.030;1.822;2023-04-24T03:36:41;0.93;;;0.70;;
62543;SDS011;48597;49.030;1.822;2023-04-24T03:39:06;0.50;;;0.50;;
62543;SDS011;48597;49.030;1.822;2023-04-24T03:41:32;0.77;;;0.70;;
62543;SDS011;48597;49.030;1.822;2023-04-24T03:43:57;0.80;;;0.80;;
62543;SDS011;48597;49.030;1.822;2023-04-24T03:46:23;1.20;;;0.82;;
62543;SDS011;48597;49.030;1.822;2023-04-24T03:48:48;0.82;;;0.70;;
62543;SDS011;48597;49.030;1.822;2023-04-24T03:51:14;0.70;;;0.70;;
62543;SDS011;48597;49.030;1.822;2023-04-24T03:53:39;1.15;;;1.05;;
62543;SDS011;48597;49.030;1.822;2023-04-24T03:56:05;0.57;;;0.57;;
62543;SDS011;48597;49.030;1.822;2023-04-24T03:58:30;1.40;;;1.00;;
62543;SDS011;48597;49.030;1.822;2023-04-24T04:00:55;1.25;;;0.70;;
62543;SDS011;48597;49.030;1.822;2023-04-24T04:03:23;2.35;;;0.77;;
62543;SDS011;48597;49.030;1.822;2023-04-24T04:05:48;1.05;;;0.60;;
62543;SDS011;48597;49.030;1.822;2023-04-24T04:08:14;0.77;;;0.77;;
62543;SDS011;48597;49.030;1.822;2023-04-24T04:10:39;1.05;;;0.80;;
62543;SDS011;48597;49.030;1.822;2023-04-24T04:13:05;0.70;;;0.70;;
62543;SDS011;48597;49.030;1.822;2023-04-24T04:15:31;0.73;;;0.70;;
62543;SDS011;48597;49.030;1.822;2023-04-24T04:17:57;0.70;;;0.70;;
62543;SDS011;48597;49.030;1.822;2023-04-24T04:20:22;0.60;;;0.60;;
62543;SDS011;48597;49.030;1.822;2023-04-24T04:22:48;1.27;;;0.70;;
62543;SDS011;48597;49.030;1.822;2023-04-24T04:25:13;1.13;;;0.70;;
62543;SDS011;48597;49.030;1.822;2023-04-24T04:27:39;0.70;;;0.70;;
62543;SDS011;48597;49.030;1.822;2023-04-24T04:30:06;0.60;;;0.60;;
62543;SDS011;48597;49.030;1.822;2023-04-24T04:32:36;0.95;;;0.70;;
62543;SDS011;48597;49.030;1.822;2023-04-24T04:35:02;0.60;;;0.60;;
62543;SDS011;48597;49.030;1.822;2023-04-24T04:37:28;1.15;;;0.70;;
62543;SDS011;48597;49.030;1.822;2023-04-24T04:39:54;0.57;;;0.55;;
62543;SDS011;48597;49.030;1.822;2023-04-24T04:42:19;0.63;;;0.63;;
62543;SDS011;48597;49.030;1.822;2023-04-24T04:44:45;1.38;;;0.70;;
62543;SDS011;48597;49.030;1.822;2023-04-24T04:47:10;0.85;;;0.85;;
62543;SDS011;48597;49.030;1.822;2023-04-24T04:49:37;1.00;;;0.70;;
62543;SDS011;48597;49.030;1.822;2023-04-24T04:52:03;1.27;;;0.73;;
62543;SDS011;48597;49.030;1.822;2023-04-24T04:54:29;1.17;;;0.70;;
62543;SDS011;48597;49.030;1.822;2023-04-24T04:56:54;0.77;;;0.70;;
62543;SDS011;48597;49.030;1.822;2023-04-24T04:59:20;0.70;;;0.70;;
62543;SDS011;48597;49.030;1.822;2023-04-24T05:01:45;1.05;;;0.77;;
62543;SDS011;48597;49.030;1.822;2023-04-24T05:04:11;0.85;;;0.63;;
62543;SDS011;48597;49.030;1.822;2023-04-24T05:06:36;1.85;;;0.80;;
62543;SDS011;48597;49.030;1.822;2023-04-24T05:09:02;0.70;;;0.60;;
62543;SDS011;48597;49.030;1.822;2023-04-24T05:11:28;0.60;;;0.60;;
62543;SDS011;48597;49.030;1.822;2023-04-24T05:13:54;1.27;;;0.70;;
62543;SDS011;48597;49.030;1.822;2023-04-24T05:16:19;0.90;;;0.65;;
62543;SDS011;48597;49.030;1.822;2023-04-24T05:18:45;0.77;;;0.70;;
62543;SDS011;48597;49.030;1.822;2023-04-24T05:21:10;0.60;;;0.60;;
62543;SDS011;48597;49.030;1.822;2023-04-24T05:23:35;0.70;;;0.60;;
62543;SDS011;48597;49.030;1.822;2023-04-24T05:26:01;0.50;;;0.50;;
62543;SDS011;48597;49.030;1.822;2023-04-24T05:28:27;1.00;;;0.80;;
62543;SDS011;48597;49.030;1.822;2023-04-24T05:30:53;0.73;;;0.73;;
62543;SDS011;48597;49.030;1.822;2023-04-24T05:33:20;2.17;;;0.73;;
62543;SDS011;48597;49.030;1.822;2023-04-24T05:35:46;0.70;;;0.68;;
62543;SDS011;48597;49.030;1.822;2023-04-24T05:38:12;0.50;;;0.50;;
62543;SDS011;48597;49.030;1.822;2023-04-24T05:40:38;1.10;;;0.70;;
62543;SDS011;48597;49.030;1.822;2023-04-24T05:43:04;0.75;;;0.65;;
62543;SDS011;48597;49.030;1.822;2023-04-24T05:45:29;1.08;;;0.88;;
62543;SDS011;48597;49.030;1.822;2023-04-24T05:47:55;1.05;;;0.80;;
62543;SDS011;48597;49.030;1.822;2023-04-24T05:50:20;1.13;;;0.60;;
62543;SDS011;48597;49.030;1.822;2023-04-24T05:52:46;0.95;;;0.80;;
62543;SDS011;48597;49.030;1.822;2023-04-24T05:55:11;0.60;;;0.60;;
62543;SDS011;48597;49.030;1.822;2023-04-24T05:57:36;0.70;;;0.70;;
62543;SDS011;48597;49.030;1.822;2023-04-24T06:00:02;1.27;;;0.80;;
62543;SDS011;48597;49.030;1.822;2023-04-24T06:02:29;0.88;;;0.70;;
62543;SDS011;48597;49.030;1.822;2023-04-24T06:04:57;0.77;;;0.60;;
62543;SDS011;48597;49.030;1.822;2023-04-24T06:07:25;0.70;;;0.70;;
62543;SDS011;48597;49.030;1.822;2023-04-24T06:09:51;0.75;;;0.65;;
62543;SDS011;48597;49.030;1.822;2023-04-24T06:12:17;0.98;;;0.70;;
62543;SDS011;48597;49.030;1.822;2023-04-24T06:14:42;0.70;;;0.70;;
62543;SDS011;48597;49.030;1.822;2023-04-24T06:17:07;0.77;;;0.60;;
62543;SDS011;48597;49.030;1.822;2023-04-24T06:19:33;0.77;;;0.70;;
62543;SDS011;48597;49.030;1.822;2023-04-24T06:21:58;0.70;;;0.70;;
62543;SDS011;48597;49.030;1.822;2023-04-24T06:24:27;0.77;;;0.70;;
62543;SDS011;48597;49.030;1.822;2023-04-24T06:26:52;1.10;;;0.77;;
62543;SDS011;48597;49.030;1.822;2023-04-24T06:29:18;1.02;;;0.65;;
62543;SDS011;48597;49.030;1.822;2023-04-24T06:31:43;1.60;;;0.80;;
62543;SDS011;48597;49.030;1.822;2023-04-24T06:34:08;0.85;;;0.75;;
62543;SDS011;48597;49.030;1.822;2023-04-24T06:36:34;0.98;;;0.82;;
62543;SDS011;48597;49.030;1.822;2023-04-24T06:39:00;1.15;;;0.70;;
62543;SDS011;48597;49.030;1.822;2023-04-24T06:41:26;0.60;;;0.60;;
62543;SDS011;48597;49.030;1.822;2023-04-24T06:43:52;2.10;;;0.80;;
62543;SDS011;48597;49.030;1.822;2023-04-24T06:46:18;1.40;;;0.98;;
62543;SDS011;48597;49.030;1.822;2023-04-24T06:48:43;0.70;;;0.70;;
62543;SDS011;48597;49.030;1.822;2023-04-24T06:51:08;2.75;;;0.88;;
62543;SDS011;48597;49.030;1.822;2023-04-24T06:53:35;1.75;;;0.82;;
62543;SDS011;48597;49.030;1.822;2023-04-24T06:56:00;1.95;;;0.75;;
62543;SDS011;48597;49.030;1.822;2023-04-24T06:58:25;2.30;;;0.90;;
62543;SDS011;48597;49.030;1.822;2023-04-24T07:00:51;2.20;;;0.80;;
62543;SDS011;48597;49.030;1.822;2023-04-24T07:03:16;2.55;;;1.00;;
62543;SDS011;48597;49.030;1.822;2023-04-24T07:05:41;1.77;;;1.10;;
62543;SDS011;48597;49.030;1.822;2023-04-24T07:08:07;2.70;;;0.90;;
62543;SDS011;48597;49.030;1.822;2023-04-24T07:10:36;1.48;;;0.90;;
62543;SDS011;48597;49.030;1.822;2023-04-24T07:13:01;1.60;;;1.00;;
62543;SDS011;48597;49.030;1.822;2023-04-24T07:15:27;3.03;;;1.20;;
62543;SDS011;48597;49.030;1.822;2023-04-24T07:17:52;4.03;;;1.35;;
62543;SDS011;48597;49.030;1.822;2023-04-24T07:20:18;0.82;;;0.80;;
62543;SDS011;48597;49.030;1.822;2023-04-24T07:22:43;4.43;;;1.40;;
62543;SDS011;48597;49.030;1.822;2023-04-24T07:25:08;2.45;;;1.08;;
62543;SDS011;48597;49.030;1.822;2023-04-24T07:27:34;5.00;;;1.02;;
62543;SDS011;48597;49.030;1.822;2023-04-24T07:30:01;4.05;;;1.15;;
62543;SDS011;48597;49.030;1.822;2023-04-24T07:32:27;5.93;;;1.73;;
62543;SDS011;48597;49.030;1.822;2023-04-24T07:34:52;3.75;;;1.00;;
62543;SDS011;48597;49.030;1.822;2023-04-24T07:37:18;2.70;;;0.80;;
62543;SDS011;48597;49.030;1.822;2023-04-24T07:39:43;3.55;;;1.25;;
62543;SDS011;48597;49.030;1.822;2023-04-24T07:42:09;1.48;;;0.95;;
62543;SDS011;48597;49.030;1.822;2023-04-24T07:44:34;3.28;;;1.50;;
62543;SDS011;48597;49.030;1.822;2023-04-24T07:47:00;2.35;;;1.10;;
62543;SDS011;48597;49.030;1.822;2023-04-24T07:49:26;3.75;;;1.05;;
62543;SDS011;48597;49.030;1.822;2023-04-24T07:51:52;2.63;;;1.13;;
62543;SDS011;48597;49.030;1.822;2023-04-24T07:54:18;2.55;;;1.08;;
62543;SDS011;48597;49.030;1.822;2023-04-24T07:56:43;1.88;;;1.33;;
62543;SDS011;48597;49.030;1.822;2023-04-24T07:59:09;2.13;;;1.45;;
62543;SDS011;48597;49.030;1.822;2023-04-24T08:01:35;2.70;;;1.30;;
62543;SDS011;48597;49.030;1.822;2023-04-24T08:04:01;3.53;;;1.42;;
62543;SDS011;48597;49.030;1.822;2023-04-24T08:06:26;3.28;;;1.20;;
62543;SDS011;48597;49.030;1.822;2023-04-24T08:08:58;2.53;;;1.20;;
62543;SDS011;48597;49.030;1.822;2023-04-24T08:11:25;2.42;;;1.17;;
62543;SDS011;48597;49.030;1.822;2023-04-24T08:13:50;2.47;;;1.63;;
62543;SDS011;48597;49.030;1.822;2023-04-24T08:16:16;1.20;;;1.10;;
62543;SDS011;48597;49.030;1.822;2023-04-24T08:18:41;1.98;;;1.08;;
62543;SDS011;48597;49.030;1.822;2023-04-24T08:21:07;2.85;;;1.23;;
62543;SDS011;48597;49.030;1.822;2023-04-24T08:23:32;2.38;;;1.20;;
62543;SDS011;48597;49.030;1.822;2023-04-24T08:25:57;3.22;;;1.40;;
62543;SDS011;48597;49.030;1.822;2023-04-24T08:28:23;3.00;;;1.35;;
62543;SDS011;48597;49.030;1.822;2023-04-24T08:30:48;2.03;;;1.20;;
62543;SDS011;48597;49.030;1.822;2023-04-24T08:33:19;1.73;;;1.10;;
62543;SDS011;48597;49.030;1.822;2023-04-24T08:35:45;2.10;;;1.10;;
62543;SDS011;48597;49.030;1.822;2023-04-24T08:38:10;4.05;;;1.40;;
62543;SDS011;48597;49.030;1.822;2023-04-24T08:40:36;3.22;;;1.10;;
62543;SDS011;48597;49.030;1.822;2023-04-24T08:43:01;2.95;;;1.20;;
62543;SDS011;48597;49.030;1.822;2023-04-24T08:45:28;6.45;;;1.30;;
62543;SDS011;48597;49.030;1.822;2023-04-24T08:47:54;2.35;;;1.20;;
62543;SDS011;48597;49.030;1.822;2023-04-24T08:50:21;1.70;;;1.20;;
62543;SDS011;48597;49.030;1.822;2023-04-24T08:52:49;2.28;;;1.40;;
62543;SDS011;48597;49.030;1.822;2023-04-24T08:55:16;2.25;;;1.10;;
62543;SDS011;48597;49.030;1.822;2023-04-24T08:57:45;2.70;;;1.33;;
62543;SDS011;48597;49.030;1.822;2023-04-24T09:00:15;3.15;;;1.20;;
62543;SDS011;48597;49.030;1.822;2023-04-24T09:02:41;2.65;;;1.40;;
62543;SDS011;48597;49.030;1.822;2023-04-24T09:05:08;2.28;;;1.15;;
62543;SDS011;48597;49.030;1.822;2023-04-24T09:07:35;1.67;;;1.40;;
62543;SDS011;48597;49.030;1.822;2023-04-24T09:10:02;2.03;;;1.30;;
62543;SDS011;48597;49.030;1.822;2023-04-24T09:12:28;2.15;;;1.23;;
62543;SDS011;48597;49.030;1.822;2023-04-24T09:14:53;1.30;;;1.20;;
62543;SDS011;48597;49.030;1.822;2023-04-24T09:17:20;1.98;;;1.30;;
62543;SDS011;48597;49.030;1.822;2023-04-24T09:19:47;2.80;;;1.20;;
62543;SDS011;48597;49.030;1.822;2023-04-24T09:22:13;2.22;;;1.25;;
62543;SDS011;48597;49.030;1.822;2023-04-24T09:24:40;1.55;;;1.20;;
62543;SDS011;48597;49.030;1.822;2023-04-24T09:27:05;1.25;;;1.00;;
62543;SDS011;48597;49.030;1.822;2023-04-24T09:29:31;2.42;;;1.38;;
62543;SDS011;48597;49.030;1.822;2023-04-24T09:31:57;1.88;;;1.20;;
62543;SDS011;48597;49.030;1.822;2023-04-24T09:34:24;2.30;;;1.30;;
62543;SDS011;48597;49.030;1.822;2023-04-24T09:36:52;2.58;;;1.30;;
62543;SDS011;48597;49.030;1.822;2023-04-24T09:39:18;2.75;;;1.17;;
62543;SDS011;48597;49.030;1.822;2023-04-24T09:41:48;2.65;;;1.38;;
62543;SDS011;48597;49.030;1.822;2023-04-24T09:44:19;3.20;;;1.33;;
62543;SDS011;48597;49.030;1.822;2023-04-24T09:46:49;1.58;;;1.25;;
62543;SDS011;48597;49.030;1.822;2023-04-24T09:49:23;1.70;;;1.45;;
62543;SDS011;48597;49.030;1.822;2023-04-24T09:51:50;2.53;;;1.73;;
62543;SDS011;48597;49.030;1.822;2023-04-24T09:54:17;1.75;;;1.30;;
62543;SDS011;48597;49.030;1.822;2023-04-24T09:56:46;2.00;;;1.35;;
62543;SDS011;48597;49.030;1.822;2023-04-24T09:59:15;1.77;;;1.17;;
62543;SDS011;48597;49.030;1.822;2023-04-24T10:01:42;2.08;;;1.20;;
62543;SDS011;48597;49.030;1.822;2023-04-24T10:04:22;1.40;;;1.02;;
62543;SDS011;48597;49.030;1.822;2023-04-24T10:06:50;1.67;;;1.30;;
62543;SDS011;48597;49.030;1.822;2023-04-24T10:09:17;1.90;;;1.30;;
62543;SDS011;48597;49.030;1.822;2023-04-24T10:11:46;2.30;;;1.20;;
62543;SDS011;48597;49.030;1.822;2023-04-24T10:14:13;1.30;;;1.10;;
62543;SDS011;48597;49.030;1.822;2023-04-24T10:16:46;1.63;;;1.17;;
62543;SDS011;48597;49.030;1.822;2023-04-24T10:19:12;1.45;;;1.25;;
62543;SDS011;48597;49.030;1.822;2023-04-24T10:21:38;1.10;;;1.00;;
62543;SDS011;48597;49.030;1.822;2023-04-24T10:24:07;1.50;;;1.40;;
62543;SDS011;48597;49.030;1.822;2023-04-24T10:26:34;1.40;;;1.17;;
62543;SDS011;48597;49.030;1.822;2023-04-24T10:29:00;2.15;;;1.25;;
62543;SDS011;48597;49.030;1.822;2023-04-24T10:31:26;1.30;;;1.20;;
62543;SDS011;48597;49.030;1.822;2023-04-24T10:33:56;1.30;;;1.20;;
62543;SDS011;48597;49.030;1.822;2023-04-24T10:36:23;1.55;;;1.38;;
62543;SDS011;48597;49.030;1.822;2023-04-24T10:38:51;1.67;;;1.20;;
62543;SDS011;48597;49.030;1.822;2023-04-24T10:41:19;1.23;;;1.10;;
62543;SDS011;48597;49.030;1.822;2023-04-24T10:43:48;1.30;;;1.20;;
62543;SDS011;48597;49.030;1.822;2023-04-24T10:46:19;1.90;;;1.38;;
62543;SDS011;48597;49.030;1.822;2023-04-24T10:48:53;1.40;;;1.10;;
62543;SDS011;48597;49.030;1.822;2023-04-24T10:51:23;1.55;;;1.10;;
62543;SDS011;48597;49.030;1.822;2023-04-24T10:53:52;1.65;;;1.30;;
62543;SDS011;48597;49.030;1.822;2023-04-24T10:56:17;1.20;;;1.10;;
62543;SDS011;48597;49.030;1.822;2023-04-24T10:58:44;1.40;;;1.20;;
62543;SDS011;48597;49.030;1.822;2023-04-24T11:01:23;1.40;;;1.10;;
62543;SDS011;48597;49.030;1.822;2023-04-24T11:03:54;2.08;;;1.40;;
62543;SDS011;48597;49.030;1.822;2023-04-24T11:06:33;1.55;;;1.40;;
62543;SDS011;48597;49.030;1.822;2023-04-24T11:09:06;1.10;;;1.00;;
62543;SDS011;48597;49.030;1.822;2023-04-24T11:11:34;1.48;;;1.25;;
62543;SDS011;48597;49.030;1.822;2023-04-24T11:14:02;1.33;;;1.17;;
62543;SDS011;48597;49.030;1.822;2023-04-24T11:19:17;1.45;;;1.20;;
62543;SDS011;48597;49.030;1.822;2023-04-24T11:24:48;1.10;;;1.00;;
62543;SDS011;48597;49.030;1.822;2023-04-24T11:27:16;1.10;;;1.10;;
62543;SDS011;48597;49.030;1.822;2023-04-24T11:34:55;1.70;;;1.15;;
62543;SDS011;48597;49.030;1.822;2023-04-24T11:37:44;1.30;;;1.20;;
62543;SDS011;48597;49.030;1.822;2023-04-24T11:40:12;1.57;;;1.20;;
62543;SDS011;48597;49.030;1.822;2023-04-24T11:42:43;1.52;;;1.33;;
62543;SDS011;48597;49.030;1.822;2023-04-24T11:47:36;1.15;;;1.10;;
62543;SDS011;48597;49.030;1.822;2023-04-24T11:50:02;1.63;;;1.10;;
62543;SDS011;48597;49.030;1.822;2023-04-24T11:52:33;1.27;;;1.17;;
62543;SDS011;48597;49.030;1.822;2023-04-24T11:55:01;1.30;;;1.20;;
62543;SDS011;48597;49.030;1.822;2023-04-24T11:57:27;1.77;;;1.20;;
62543;SDS011;48597;49.030;1.822;2023-04-24T11:59:58;1.10;;;1.05;;
62543;SDS011;48597;49.030;1.822;2023-04-24T12:02:24;1.38;;;1.27;;
62543;SDS011;48597;49.030;1.822;2023-04-24T12:04:51;1.50;;;1.30;;
62543;SDS011;48597;49.030;1.822;2023-04-24T12:07:20;1.20;;;1.10;;
62543;SDS011;48597;49.030;1.822;2023-04-24T12:09:47;1.13;;;1.02;;
62543;SDS011;48597;49.030;1.822;2023-04-24T12:12:14;1.30;;;1.20;;
62543;SDS011;48597;49.030;1.822;2023-04-24T12:14:52;1.10;;;1.00;;
62543;SDS011;48597;49.030;1.822;2023-04-24T12:17:23;1.50;;;1.20;;
62543;SDS011;48597;49.030;1.822;2023-04-24T12:19:59;1.20;;;1.10;;
62543;SDS011;48597;49.030;1.822;2023-04-24T12:22:26;1.27;;;1.10;;
62543;SDS011;48597;49.030;1.822;2023-04-24T12:27:22;1.30;;;1.20;;
62543;SDS011;48597;49.030;1.822;2023-04-24T12:29:51;1.27;;;1.17;;
62543;SDS011;48597;49.030;1.822;2023-04-24T12:32:23;1.30;;;1.20;;
62543;SDS011;48597;49.030;1.822;2023-04-24T12:34:50;1.20;;;1.08;;
62543;SDS011;48597;49.030;1.822;2023-04-24T12:37:17;2.40;;;1.30;;
62543;SDS011;48597;49.030;1.822;2023-04-24T12:42:33;1.27;;;1.17;;
62543;SDS011;48597;49.030;1.822;2023-04-24T12:45:00;1.23;;;1.13;;
62543;SDS011;48597;49.030;1.822;2023-04-24T12:47:27;1.35;;;1.25;;
62543;SDS011;48597;49.030;1.822;2023-04-24T12:49:53;1.30;;;1.20;;
62543;SDS011;48597;49.030;1.822;2023-04-24T12:52:20;1.35;;;1.20;;
62543;SDS011;48597;49.030;1.822;2023-04-24T12:54:46;1.33;;;1.23;;
62543;SDS011;48597;49.030;1.822;2023-04-24T12:57:12;1.00;;;1.00;;
62543;SDS011;48597;49.030;1.822;2023-04-24T12:59:37;1.75;;;1.08;;
62543;SDS011;48597;49.030;1.822;2023-04-24T13:02:04;1.13;;;1.00;;
62543;SDS011;48597;49.030;1.822;2023-04-24T13:04:29;1.20;;;1.10;;
62543;SDS011;48597;49.030;1.822;2023-04-24T13:06:55;1.52;;;1.38;;
62543;SDS011;48597;49.030;1.822;2023-04-24T13:09:20;1.80;;;1.20;;
62543;SDS011;48597;49.030;1.822;2023-04-24T13:11:45;1.15;;;1.05;;
62543;SDS011;48597;49.030;1.822;2023-04-24T13:14:11;1.00;;;0.95;;
62543;SDS011;48597;49.030;1.822;2023-04-24T13:16:36;1.10;;;1.08;;
62543;SDS011;48597;49.030;1.822;2023-04-24T13:19:01;1.20;;;1.10;;
62543;SDS011;48597;49.030;1.822;2023-04-24T13:21:27;1.17;;;1.13;;
62543;SDS011;48597;49.030;1.822;2023-04-24T13:23:52;2.08;;;1.17;;
62543;SDS011;48597;49.030;1.822;2023-04-24T13:26:18;1.20;;;1.10;;
62543;SDS011;48597;49.030;1.822;2023-04-24T13:28:43;1.17;;;1.08;;
62543;SDS011;48597;49.030;1.822;2023-04-24T13:31:09;1.38;;;1.27;;
62543;SDS011;48597;49.030;1.822;2023-04-24T13:33:34;1.40;;;1.15;;
62543;SDS011;48597;49.030;1.822;2023-04-24T13:36:00;1.30;;;1.20;;
62543;SDS011;48597;49.030;1.822;2023-04-24T13:38:25;1.23;;;1.10;;
62543;SDS011;48597;49.030;1.822;2023-04-24T13:40:50;1.60;;;1.10;;
62543;SDS011;48597;49.030;1.822;2023-04-24T13:43:16;0.98;;;0.98;;
62543;SDS011;48597;49.030;1.822;2023-04-24T13:45:41;1.00;;;1.00;;
62543;SDS011;48597;49.030;1.822;2023-04-24T13:48:06;1.20;;;0.90;;
62543;SDS011;48597;49.030;1.822;2023-04-24T13:50:33;1.25;;;1.15;;
62543;SDS011;48597;49.030;1.822;2023-04-24T13:52:59;1.20;;;1.10;;
62543;SDS011;48597;49.030;1.822;2023-04-24T13:55:26;1.20;;;1.10;;
62543;SDS011;48597;49.030;1.822;2023-04-24T13:57:51;1.05;;;1.00;;
62543;SDS011;48597;49.030;1.822;2023-04-24T14:00:19;1.92;;;1.40;;
62543;SDS011;48597;49.030;1.822;2023-04-24T14:02:45;1.20;;;1.10;;
62543;SDS011;48597;49.030;1.822;2023-04-24T14:05:12;1.20;;;1.08;;
62543;SDS011;48597;49.030;1.822;2023-04-24T14:07:39;1.02;;;1.00;;
62543;SDS011;48597;49.030;1.822;2023-04-24T14:10:04;1.00;;;1.00;;
62543;SDS011;48597;49.030;1.822;2023-04-24T14:12:30;1.00;;;1.00;;
62543;SDS011;48597;49.030;1.822;2023-04-24T14:14:55;0.90;;;0.90;;
62543;SDS011;48597;49.030;1.822;2023-04-24T14:17:21;1.10;;;1.00;;
62543;SDS011;48597;49.030;1.822;2023-04-24T14:19:46;1.17;;;1.00;;
62543;SDS011;48597;49.030;1.822;2023-04-24T14:22:12;0.90;;;0.90;;
62543;SDS011;48597;49.030;1.822;2023-04-24T14:24:37;1.20;;;1.10;;
62543;SDS011;48597;49.030;1.822;2023-04-24T14:27:02;1.40;;;1.10;;
62543;SDS011;48597;49.030;1.822;2023-04-24T14:29:28;1.10;;;1.00;;
62543;SDS011;48597;49.030;1.822;2023-04-24T14:31:53;1.13;;;1.00;;
62543;SDS011;48597;49.030;1.822;2023-04-24T14:34:18;0.93;;;0.90;;
62543;SDS011;48597;49.030;1.822;2023-04-24T14:36:44;1.30;;;1.20;;
62543;SDS011;48597;49.030;1.822;2023-04-24T14:39:10;1.25;;;1.15;;
62543;SDS011;48597;49.030;1.822;2023-04-24T14:41:35;1.20;;;1.10;;
62543;SDS011;48597;49.030;1.822;2023-04-24T14:44:02;1.00;;;1.00;;
62543;SDS011;48597;49.030;1.822;2023-04-24T14:46:28;1.23;;;1.10;;
62543;SDS011;48597;49.030;1.822;2023-04-24T14:48:55;1.20;;;1.10;;
62543;SDS011;48597;49.030;1.822;2023-04-24T14:51:21;1.20;;;1.00;;
62543;SDS011;48597;49.030;1.822;2023-04-24T14:53:46;0.90;;;0.90;;
62543;SDS011;48597;49.030;1.822;2023-04-24T14:56:12;1.10;;;1.00;;
62543;SDS011;48597;49.030;1.822;2023-04-24T14:58:38;1.00;;;1.00;;
62543;SDS011;48597;49.030;1.822;2023-04-24T15:01:03;1.10;;;1.00;;